Time;durP1;ratioP1;P1;durP2;ratioP2;P2;SDS_P1;SDS_P2;PMS_P1;PMS_P2;Temp;Humidity;BMP_temperature;BMP_pressure;BME280_temperature;BME280_humidity;BME280_pressure;Samples;Min_cycle;Max_cycle;Signal;HPM_P1;HPM_P2
2021/12/08 00:00:28;;;;;;;23.52;6.40;;;3.30;99.90;;;;;;5110712;27;20218;-74
2021/12/08 00:02:54;;;;;;;20.20;6.45;;;3.30;99.90;;;;;;5095964;27;20041;-78
2021/12/08 00:05:22;;;;;;;23.08;7.05;;;3.30;99.90;;;;;;5113855;27;20043;-74
2021/12/08 00:07:48;;;;;;;24.88;6.45;;;3.30;99.90;;;;;;5115719;27;20035;-71
2021/12/08 00:13:07;;;;;;;20.98;6.35;;;3.30;99.90;;;;;;5113970;27;20093;-72
2021/12/08 00:15:34;;;;;;;28.95;7.63;;;3.30;99.90;;;;;;5113968;27;20043;-74
2021/12/08 00:18:01;;;;;;;19.38;7.20;;;3.30;99.90;;;;;;5109102;27;20065;-77
2021/12/08 00:20:30;;;;;;;23.45;6.90;;;3.30;99.90;;;;;;5114691;27;20031;-73
2021/12/08 00:22:56;;;;;;;21.15;6.63;;;3.30;99.90;;;;;;5113154;27;20478;-72
2021/12/08 00:25:22;;;;;;;26.50;7.30;;;3.30;99.90;;;;;;5115727;27;20043;-71
2021/12/08 00:27:48;;;;;;;20.77;6.75;;;3.30;99.90;;;;;;5114643;27;20035;-73
2021/12/08 00:30:14;;;;;;;16.80;6.20;;;3.30;99.90;;;;;;5096804;27;20038;-70
2021/12/08 00:32:39;;;;;;;21.30;6.78;;;3.30;99.90;;;;;;5096728;27;20367;-72
2021/12/08 00:35:06;;;;;;;18.65;6.53;;;3.30;99.90;;;;;;5091304;27;20042;-73
2021/12/08 00:37:32;;;;;;;20.88;7.53;;;3.40;99.90;;;;;;5113520;27;20047;-71
2021/12/08 00:39:58;;;;;;;22.30;6.97;;;3.30;99.90;;;;;;5113395;27;20142;-73
2021/12/08 00:42:24;;;;;;;21.70;7.10;;;3.40;99.90;;;;;;5114653;27;20031;-72
2021/12/08 00:44:50;;;;;;;18.75;6.35;;;3.40;99.90;;;;;;5116176;27;20779;-72
2021/12/08 00:47:16;;;;;;;30.85;7.55;;;3.40;99.90;;;;;;5109742;27;20035;-78
2021/12/08 00:49:42;;;;;;;26.63;7.68;;;3.40;99.90;;;;;;5106302;27;20043;-75
2021/12/08 00:52:08;;;;;;;23.27;7.65;;;3.40;99.90;;;;;;5111744;27;20367;-78
2021/12/08 00:54:34;;;;;;;25.77;7.65;;;3.40;99.90;;;;;;5096351;27;20031;-71
2021/12/08 00:57:00;;;;;;;25.67;7.43;;;3.40;99.90;;;;;;5113534;27;20043;-73
2021/12/08 00:59:26;;;;;;;24.38;8.27;;;3.50;99.90;;;;;;5111984;27;20103;-77
2021/12/08 01:01:52;;;;;;;36.63;7.65;;;3.50;99.90;;;;;;5114107;27;20050;-72
2021/12/08 01:04:17;;;;;;;24.30;7.93;;;3.50;99.90;;;;;;5112651;27;20077;-75
2021/12/08 01:06:43;;;;;;;25.40;7.88;;;3.50;99.90;;;;;;5110823;27;20073;-76
2021/12/08 01:09:12;;;;;;;22.27;7.68;;;3.50;99.90;;;;;;5107956;27;20035;-74
2021/12/08 01:11:38;;;;;;;21.80;8.25;;;3.50;99.90;;;;;;5109381;27;20031;-79
2021/12/08 01:14:05;;;;;;;31.38;8.77;;;3.50;99.90;;;;;;5111698;27;20046;-75
2021/12/08 01:16:31;;;;;;;21.45;7.80;;;3.50;99.90;;;;;;5094385;27;20461;-73
2021/12/08 01:18:57;;;;;;;25.92;8.55;;;3.50;99.90;;;;;;5107284;27;20066;-76
2021/12/08 01:21:23;;;;;;;28.30;8.80;;;3.60;99.90;;;;;;5095432;27;20058;-75
2021/12/08 01:23:48;;;;;;;25.80;9.10;;;3.60;99.90;;;;;;5113546;27;20103;-71
2021/12/08 01:26:14;;;;;;;19.85;8.57;;;3.60;99.90;;;;;;5109260;27;20051;-77
2021/12/08 01:28:40;;;;;;;20.10;8.90;;;3.60;99.90;;;;;;5112675;27;20556;-78
2021/12/08 01:31:06;;;;;;;24.08;9.27;;;3.60;99.90;;;;;;5112934;27;20031;-75
2021/12/08 01:33:33;;;;;;;23.38;8.88;;;3.60;99.90;;;;;;5114456;27;20054;-79
2021/12/08 01:36:02;;;;;;;24.25;9.30;;;3.60;99.90;;;;;;5111332;27;20031;-77
2021/12/08 01:38:28;;;;;;;26.25;8.93;;;3.60;99.90;;;;;;5106128;27;20122;-69
2021/12/08 01:40:54;;;;;;;25.35;9.82;;;3.60;99.90;;;;;;5111692;27;20035;-74
2021/12/08 01:43:28;;;;;;;28.80;9.60;;;3.60;99.90;;;;;;5112574;27;20126;-77
2021/12/08 01:46:05;;;;;;;26.48;9.45;;;3.60;99.90;;;;;;5110410;27;20042;-73
2021/12/08 01:48:34;;;;;;;22.95;9.32;;;3.70;99.90;;;;;;5111509;27;20031;-71
2021/12/08 01:51:12;;;;;;;23.10;9.20;;;3.70;99.90;;;;;;5110790;27;20042;-76
2021/12/08 01:53:44;;;;;;;22.17;8.98;;;3.60;99.90;;;;;;5109172;27;20058;-74
2021/12/08 01:56:10;;;;;;;23.60;9.52;;;3.70;99.90;;;;;;5108976;27;20039;-70
2021/12/08 01:58:37;;;;;;;22.98;8.90;;;3.70;99.90;;;;;;5112804;27;20577;-77
2021/12/08 02:01:08;;;;;;;24.13;9.40;;;3.70;99.90;;;;;;5107624;27;20042;-75
2021/12/08 02:03:34;;;;;;;26.90;9.93;;;3.70;99.90;;;;;;5112837;27;20489;-76
2021/12/08 02:06:02;;;;;;;21.83;9.30;;;3.80;99.90;;;;;;5094503;27;20035;-74
2021/12/08 02:08:27;;;;;;;22.40;8.88;;;3.70;99.90;;;;;;5111183;27;20038;-74
2021/12/08 02:10:53;;;;;;;22.83;9.98;;;3.80;99.90;;;;;;5093698;27;20035;-72
2021/12/08 02:13:19;;;;;;;20.67;9.45;;;3.80;99.90;;;;;;5107222;28;20509;-73
2021/12/08 02:15:45;;;;;;;26.15;10.65;;;3.80;99.90;;;;;;5092519;27;20039;-77
2021/12/08 02:18:14;;;;;;;25.15;9.88;;;3.80;99.90;;;;;;5093995;27;20039;-73
2021/12/08 02:20:43;;;;;;;30.73;10.95;;;3.80;99.90;;;;;;5093008;27;20038;-76
2021/12/08 02:23:08;;;;;;;29.88;10.07;;;3.80;99.90;;;;;;5111522;27;20046;-74
2021/12/08 02:25:35;;;;;;;24.33;9.82;;;3.80;99.90;;;;;;5094549;27;20390;-74
2021/12/08 02:28:02;;;;;;;26.13;10.63;;;3.80;99.90;;;;;;5111495;27;20047;-71
2021/12/08 02:46:49;;;;;;;32.08;12.90;;;4.00;99.90;;;;;;5112673;28;20123;-72
2021/12/08 02:49:18;;;;;;;23.50;11.40;;;4.00;99.90;;;;;;5093232;28;20138;-75
2021/12/08 02:51:44;;;;;;;27.95;11.80;;;4.00;99.90;;;;;;5088241;28;20046;-75
2021/12/08 02:54:09;;;;;;;26.42;11.55;;;4.00;99.90;;;;;;5105143;28;20855;-75
2021/12/08 02:56:35;;;;;;;23.38;12.18;;;4.00;99.90;;;;;;5109243;28;20035;-70
2021/12/08 02:59:01;;;;;;;27.40;11.80;;;4.00;99.90;;;;;;5103223;27;20058;-70
2021/12/08 03:01:27;;;;;;;26.95;11.60;;;4.00;99.90;;;;;;5095607;28;20043;-73
2021/12/08 03:03:53;;;;;;;26.27;11.75;;;4.00;99.90;;;;;;5092288;28;20501;-74
2021/12/08 03:06:19;;;;;;;24.70;11.60;;;4.00;99.90;;;;;;5107580;28;20039;-76
2021/12/08 03:08:45;;;;;;;33.80;12.48;;;4.10;99.90;;;;;;5112539;28;20477;-71
2021/12/08 03:11:10;;;;;;;24.23;11.63;;;4.10;99.90;;;;;;5099468;28;20049;-75
2021/12/08 03:13:45;;;;;;;26.92;12.40;;;4.10;99.90;;;;;;5075632;28;20406;-75
2021/12/08 03:16:12;;;;;;;26.02;12.23;;;4.10;99.90;;;;;;5077962;28;20089;-71
2021/12/08 03:18:40;;;;;;;28.85;12.50;;;4.10;99.90;;;;;;5091740;28;20039;-76
2021/12/08 03:21:07;;;;;;;31.73;12.05;;;4.10;99.90;;;;;;5111955;28;20028;-74
2021/12/08 03:23:47;;;;;;;29.23;12.07;;;4.20;99.90;;;;;;5111761;28;20050;-75
2021/12/08 03:26:14;;;;;;;33.42;12.65;;;4.10;99.90;;;;;;5114763;27;20552;-75
2021/12/08 03:28:48;;;;;;;27.75;12.73;;;4.10;99.90;;;;;;5111645;27;20110;-75
2021/12/08 03:31:18;;;;;;;31.25;12.65;;;4.20;99.90;;;;;;5112945;27;20031;-74
2021/12/08 03:33:45;;;;;;;32.25;12.85;;;4.20;99.90;;;;;;5116530;27;20480;-74
2021/12/08 03:36:11;;;;;;;32.13;13.30;;;4.20;99.90;;;;;;5115942;27;20082;-75
2021/12/08 03:38:39;;;;;;;28.67;13.35;;;4.20;99.90;;;;;;5109608;27;20080;-73
2021/12/08 03:41:05;;;;;;;28.40;13.57;;;4.20;99.90;;;;;;5097856;27;20054;-72
2021/12/08 03:43:31;;;;;;;35.28;14.25;;;4.20;99.90;;;;;;5115599;27;20053;-71
2021/12/08 03:45:58;;;;;;;32.67;14.60;;;4.30;99.90;;;;;;5116485;27;20538;-74
2021/12/08 03:48:28;;;;;;;34.92;15.48;;;4.30;99.90;;;;;;5113347;27;20465;-74
2021/12/08 03:50:54;;;;;;;33.20;14.27;;;4.30;99.90;;;;;;5116625;27;20397;-72
2021/12/08 03:53:20;;;;;;;33.05;13.98;;;4.30;99.90;;;;;;5116587;27;20546;-72
2021/12/08 03:55:49;;;;;;;36.92;14.80;;;4.40;99.90;;;;;;5116292;27;20122;-74
2021/12/08 03:58:15;;;;;;;32.25;14.23;;;4.40;99.90;;;;;;5115542;27;20054;-74
2021/12/08 04:00:43;;;;;;;37.45;14.75;;;4.40;99.90;;;;;;5114603;27;20038;-73
2021/12/08 04:03:11;;;;;;;29.33;14.25;;;4.50;99.90;;;;;;5110736;27;20039;-72
2021/12/08 04:05:58;;;;;;;35.05;14.07;;;4.50;99.90;;;;;;5099223;27;20027;-74
2021/12/08 04:08:31;;;;;;;31.08;13.05;;;4.50;99.90;;;;;;5114626;27;20371;-74
2021/12/08 04:10:59;;;;;;;33.25;14.68;;;4.50;99.90;;;;;;5116381;27;20039;-72
2021/12/08 04:13:48;;;;;;;33.83;13.98;;;4.50;99.90;;;;;;5111793;27;20050;-73
2021/12/08 04:16:18;;;;;;;35.35;14.20;;;4.60;99.90;;;;;;5097846;27;20112;-75
2021/12/08 04:18:44;;;;;;;30.45;12.93;;;4.60;99.90;;;;;;5111319;27;20047;-75
2021/12/08 04:21:11;;;;;;;27.58;13.07;;;4.60;99.90;;;;;;5113910;27;20122;-75
2021/12/08 04:23:40;;;;;;;31.70;13.50;;;4.70;99.90;;;;;;5112371;27;20039;-75
2021/12/08 04:26:15;;;;;;;32.95;13.52;;;4.70;99.90;;;;;;5097823;27;20027;-75
2021/12/08 04:28:41;;;;;;;28.30;12.60;;;4.70;99.90;;;;;;5106013;27;20061;-76
2021/12/08 04:31:12;;;;;;;30.08;13.15;;;4.70;99.90;;;;;;5109981;27;20043;-72
2021/12/08 04:33:38;;;;;;;33.47;13.30;;;4.70;99.90;;;;;;5112500;27;20039;-73
2021/12/08 04:36:07;;;;;;;30.45;13.88;;;4.80;99.90;;;;;;5113772;27;20078;-72
2021/12/08 04:38:39;;;;;;;28.75;13.00;;;4.80;99.90;;;;;;5114536;27;20075;-75
2021/12/08 04:41:11;;;;;;;28.75;12.52;;;4.80;99.90;;;;;;5114053;27;20602;-75
2021/12/08 04:46:54;;;;;;;28.05;12.13;;;4.70;99.90;;;;;;5114130;27;20035;-71
2021/12/08 04:49:25;;;;;;;24.92;12.05;;;4.60;99.90;;;;;;5110404;27;20044;-74
2021/12/08 04:52:31;;;;;;;30.75;11.15;;;4.50;99.90;;;;;;5096475;27;20059;-72
2021/12/08 05:01:21;;;;;;;29.67;11.70;;;4.40;99.90;;;;;;5113792;27;20500;-73
2021/12/08 05:09:16;;;;;;;30.77;10.95;;;4.40;99.90;;;;;;5110371;27;20104;-74
2021/12/08 05:11:48;;;;;;;31.75;11.27;;;4.40;99.90;;;;;;5113566;27;20133;-73
2021/12/08 05:14:20;;;;;;;29.50;11.13;;;4.30;99.90;;;;;;5113443;27;20074;-73
2021/12/08 05:16:48;;;;;;;28.02;10.85;;;4.30;99.90;;;;;;5113698;27;20081;-73
2021/12/08 05:19:17;;;;;;;25.45;10.38;;;4.30;99.90;;;;;;5108696;27;20043;-75
2021/12/08 05:21:51;;;;;;;23.88;10.60;;;4.30;99.90;;;;;;5113353;27;20043;-75
2021/12/08 05:24:21;;;;;;;23.48;10.18;;;4.20;99.90;;;;;;5111193;27;20461;-73
2021/12/08 05:26:57;;;;;;;33.40;10.52;;;4.20;99.90;;;;;;5112194;27;20059;-75
2021/12/08 05:29:27;;;;;;;24.20;10.00;;;4.10;99.90;;;;;;5112222;27;20096;-72
2021/12/08 05:31:56;;;;;;;30.90;11.13;;;4.10;99.90;;;;;;5112810;27;20031;-74
2021/12/08 05:34:21;;;;;;;23.20;9.88;;;4.10;99.90;;;;;;5109242;27;20027;-73
2021/12/08 05:36:48;;;;;;;24.70;10.10;;;4.00;99.90;;;;;;5110696;27;20057;-74
2021/12/08 05:39:20;;;;;;;27.45;10.52;;;4.00;99.90;;;;;;5109032;27;20043;-75
2021/12/08 05:41:51;;;;;;;27.38;10.13;;;4.00;99.90;;;;;;5112995;27;20497;-75
2021/12/08 05:44:18;;;;;;;20.20;9.98;;;3.90;99.90;;;;;;5107602;27;20031;-74
2021/12/08 05:46:48;;;;;;;22.27;9.82;;;3.90;99.90;;;;;;5112927;27;20038;-76
2021/12/08 05:49:17;;;;;;;20.30;9.75;;;3.90;99.90;;;;;;5109190;27;20043;-75
2021/12/08 05:51:45;;;;;;;24.48;9.65;;;3.80;99.90;;;;;;5120171;27;20032;-74
2021/12/08 05:54:17;;;;;;;23.92;9.55;;;3.80;99.90;;;;;;5125689;27;20031;-74
2021/12/08 05:56:43;;;;;;;28.30;10.20;;;3.80;99.90;;;;;;5109195;27;20628;-74
2021/12/08 05:59:11;;;;;;;21.40;10.07;;;3.70;99.90;;;;;;5110464;27;20385;-75
2021/12/08 06:01:51;;;;;;;27.65;9.90;;;3.70;99.90;;;;;;5110006;27;20586;-75
2021/12/08 06:04:18;;;;;;;25.85;10.13;;;3.70;99.90;;;;;;5095250;27;20474;-75
2021/12/08 06:06:47;;;;;;;23.77;9.18;;;3.60;99.90;;;;;;5091165;27;20038;-74
2021/12/08 06:09:16;;;;;;;22.73;9.68;;;3.60;99.90;;;;;;5106298;27;20111;-74
2021/12/08 06:11:43;;;;;;;23.98;9.15;;;3.60;99.90;;;;;;5111295;27;20065;-74
2021/12/08 06:14:09;;;;;;;25.00;9.18;;;3.60;99.90;;;;;;5112062;27;20513;-75
2021/12/08 06:16:39;;;;;;;20.73;8.90;;;3.50;99.90;;;;;;5110566;27;20035;-74
2021/12/08 06:19:07;;;;;;;21.55;8.00;;;3.50;99.90;;;;;;5111673;27;20082;-74
2021/12/08 06:21:33;;;;;;;21.20;8.45;;;3.50;99.90;;;;;;5107812;27;20050;-75
2021/12/08 06:24:03;;;;;;;23.10;8.65;;;3.50;99.90;;;;;;5111530;27;20099;-75
2021/12/08 06:26:29;;;;;;;22.10;8.50;;;3.50;99.90;;;;;;5095170;27;20046;-73
2021/12/08 06:28:56;;;;;;;25.85;8.77;;;3.40;99.90;;;;;;5111663;27;20050;-73
2021/12/08 06:31:24;;;;;;;21.20;8.32;;;3.40;99.90;;;;;;5111545;28;20049;-75
2021/12/08 06:33:50;;;;;;;21.27;8.02;;;3.40;99.90;;;;;;5111895;28;20043;-75
2021/12/08 06:36:24;;;;;;;25.17;7.72;;;3.40;99.90;;;;;;5110312;27;20038;-72
2021/12/08 06:38:51;;;;;;;22.98;8.27;;;3.40;99.90;;;;;;5109856;27;20043;-72
2021/12/08 06:41:24;;;;;;;22.42;7.88;;;3.40;99.90;;;;;;5093322;27;20389;-75
2021/12/08 06:43:58;;;;;;;23.80;7.25;;;3.40;99.90;;;;;;5111859;27;20512;-75
2021/12/08 06:46:24;;;;;;;22.95;7.43;;;3.40;99.90;;;;;;5110437;27;20035;-75
2021/12/08 06:48:53;;;;;;;24.13;8.05;;;3.40;99.90;;;;;;5109840;28;20047;-74
2021/12/08 06:51:31;;;;;;;22.23;7.43;;;3.40;99.90;;;;;;5109676;28;20035;-75
2021/12/08 06:54:04;;;;;;;22.40;7.95;;;3.40;99.90;;;;;;5109524;28;20035;-74
2021/12/08 06:56:40;;;;;;;21.83;7.88;;;3.40;99.90;;;;;;5108857;28;20035;-72
2021/12/08 06:59:10;;;;;;;23.50;7.75;;;3.40;99.90;;;;;;5111823;27;20035;-73
2021/12/08 07:01:47;;;;;;;23.35;7.13;;;3.40;99.90;;;;;;5114702;27;20131;-74
2021/12/08 07:04:41;;;;;;;23.50;7.65;;;3.40;99.90;;;;;;5109573;27;20490;-74
2021/12/08 07:07:14;;;;;;;22.88;7.13;;;3.40;99.90;;;;;;5115895;27;20027;-74
2021/12/08 07:09:55;;;;;;;19.10;7.03;;;3.40;99.90;;;;;;5101586;27;20057;-74
2021/12/08 07:12:27;;;;;;;25.67;7.38;;;3.40;99.90;;;;;;5111320;27;20040;-72
2021/12/08 07:15:01;;;;;;;17.75;6.50;;;3.40;99.90;;;;;;5111414;27;20074;-73
2021/12/08 07:17:31;;;;;;;23.77;6.57;;;3.30;99.90;;;;;;5115728;27;20043;-72
2021/12/08 07:23:01;;;;;;;22.35;6.60;;;3.40;99.90;;;;;;5019751;28;20045;-74
2021/12/08 07:25:30;;;;;;;25.20;7.18;;;3.30;99.90;;;;;;5092478;27;20443;-73
2021/12/08 07:27:56;;;;;;;19.40;6.50;;;3.30;99.90;;;;;;5098181;27;20443;-74
2021/12/08 07:30:26;;;;;;;23.02;7.15;;;3.30;99.90;;;;;;5112107;27;20035;-71
2021/12/08 07:32:52;;;;;;;20.70;6.72;;;3.30;99.90;;;;;;5115210;27;20121;-73
2021/12/08 07:35:27;;;;;;;22.75;6.68;;;3.40;99.90;;;;;;5094599;27;20405;-71
2021/12/08 07:37:53;;;;;;;21.15;6.82;;;3.40;99.90;;;;;;5122397;27;20378;-72
2021/12/08 07:40:21;;;;;;;18.15;6.80;;;3.40;99.90;;;;;;5133410;27;20454;-71
2021/12/08 07:42:54;;;;;;;19.15;6.95;;;3.40;99.90;;;;;;5116462;27;20043;-71
2021/12/08 07:45:25;;;;;;;23.40;6.68;;;3.40;99.90;;;;;;5123584;27;20035;-70
2021/12/08 07:47:54;;;;;;;18.38;6.22;;;3.40;99.90;;;;;;5112439;27;20062;-74
2021/12/08 07:50:33;;;;;;;18.77;6.25;;;3.40;99.90;;;;;;5114751;27;20084;-74
2021/12/08 07:53:00;;;;;;;19.42;6.13;;;3.40;99.90;;;;;;5106385;27;20501;-73
2021/12/08 07:55:42;;;;;;;19.35;6.20;;;3.40;99.90;;;;;;5113341;28;20039;-73
2021/12/08 07:58:10;;;;;;;20.10;5.72;;;3.40;99.90;;;;;;5113326;28;20046;-73
2021/12/08 08:00:41;;;;;;;19.83;6.47;;;3.40;99.90;;;;;;5112533;28;20130;-70
2021/12/08 08:03:09;;;;;;;16.67;5.70;;;3.40;99.90;;;;;;5094223;28;20465;-73
2021/12/08 08:05:36;;;;;;;19.42;5.80;;;3.40;99.90;;;;;;5113360;28;20042;-73
2021/12/08 08:08:06;;;;;;;22.83;5.93;;;3.40;99.90;;;;;;5111725;27;20284;-72
2021/12/08 08:10:43;;;;;;;20.65;5.68;;;3.30;99.90;;;;;;5111974;27;20074;-72
2021/12/08 08:13:10;;;;;;;21.67;5.63;;;3.40;99.90;;;;;;5109615;28;20561;-72
2021/12/08 08:15:40;;;;;;;24.50;5.13;;;3.40;99.90;;;;;;5112314;28;20063;-74
2021/12/08 08:18:10;;;;;;;18.55;5.28;;;3.40;99.90;;;;;;5094954;28;20094;-72
2021/12/08 08:20:42;;;;;;;19.20;5.35;;;3.50;99.90;;;;;;5111888;28;20054;-71
2021/12/08 08:23:08;;;;;;;;;;;3.50;99.90;;;;;;5114152;28;20415;-73
2021/12/08 08:25:38;;;;;;;15.10;4.55;;;3.60;99.90;;;;;;5104638;28;19968;-72
2021/12/08 08:28:05;;;;;;;16.10;4.70;;;3.60;99.90;;;;;;5118684;28;20081;-73
2021/12/08 08:30:38;;;;;;;17.45;5.05;;;3.60;99.90;;;;;;5112829;28;20043;-73
2021/12/08 08:33:04;;;;;;;16.60;4.78;;;3.70;99.90;;;;;;5107501;28;20144;-73
2021/12/08 08:35:39;;;;;;;21.50;4.80;;;3.70;99.90;;;;;;5093836;28;20561;-72
2021/12/08 08:38:09;;;;;;;13.82;4.40;;;3.70;99.90;;;;;;5111673;28;20035;-71
2021/12/08 08:40:40;;;;;;;22.42;4.70;;;3.70;99.90;;;;;;5096672;28;20045;-73
2021/12/08 08:43:08;;;;;;;16.95;4.68;;;3.90;99.90;;;;;;5113698;28;20042;-71
2021/12/08 08:45:44;;;;;;;17.45;4.57;;;3.90;99.90;;;;;;5112154;28;20043;-73
2021/12/08 08:48:14;;;;;;;18.55;3.85;;;4.00;99.90;;;;;;5113269;28;20126;-71
2021/12/08 08:50:42;;;;;;;18.25;4.20;;;4.10;99.90;;;;;;5112024;28;20069;-71
2021/12/08 08:53:09;;;;;;;17.60;3.75;;;4.20;99.90;;;;;;5078541;27;1001663;-71
2021/12/08 08:55:41;;;;;;;20.23;3.60;;;4.10;99.90;;;;;;5113211;27;20435;-64
2021/12/08 08:58:08;;;;;;;16.90;3.70;;;4.20;99.90;;;;;;5114459;27;20366;-69
2021/12/08 09:00:42;;;;;;;18.02;3.53;;;4.10;99.90;;;;;;5113844;27;20047;-71
2021/12/08 09:03:14;;;;;;;20.73;3.28;;;4.20;99.90;;;;;;5114810;27;20046;-71
2021/12/08 09:05:51;;;;;;;24.57;3.93;;;4.10;99.90;;;;;;5097607;27;20401;-70
2021/12/08 09:08:23;;;;;;;14.77;3.90;;;4.10;99.90;;;;;;5114807;27;20035;-72
2021/12/08 09:10:55;;;;;;;15.35;4.43;;;4.10;99.90;;;;;;5114198;27;20043;-71
2021/12/08 09:13:32;;;;;;;15.60;3.73;;;4.10;99.90;;;;;;5097152;27;20039;-72
2021/12/08 09:16:04;;;;;;;18.13;3.47;;;4.10;99.90;;;;;;5114279;27;20288;-71
2021/12/08 09:18:44;;;;;;;18.75;4.13;;;4.10;99.90;;;;;;5114141;27;20092;-71
2021/12/08 09:21:29;;;;;;;16.27;3.83;;;4.20;99.90;;;;;;5113223;27;20116;-71
2021/12/08 09:23:56;;;;;;;18.73;4.20;;;4.20;99.90;;;;;;5112285;27;20086;-72
2021/12/08 09:26:24;;;;;;;16.88;4.20;;;4.30;99.90;;;;;;5113879;27;20476;-71
2021/12/08 09:28:56;;;;;;;16.98;3.90;;;4.30;99.90;;;;;;5112675;27;20533;-71
2021/12/08 09:31:32;;;;;;;15.50;3.67;;;4.30;99.90;;;;;;5113190;27;20397;-71
2021/12/08 09:34:02;;;;;;;17.48;4.20;;;4.30;99.90;;;;;;5114229;27;20281;-71
2021/12/08 09:36:32;;;;;;;17.42;4.20;;;4.40;99.90;;;;;;5113433;27;20069;-70
2021/12/08 09:39:06;;;;;;;14.90;3.60;;;4.40;99.90;;;;;;5114062;27;20489;-71
2021/12/08 09:41:48;;;;;;;15.85;3.58;;;4.50;99.90;;;;;;5096504;27;20082;-70
2021/12/08 09:44:22;;;;;;;19.87;4.10;;;4.60;99.90;;;;;;5113305;27;20074;-70
2021/12/08 09:46:49;;;;;;;16.83;4.07;;;4.70;99.90;;;;;;5113461;27;20277;-72
2021/12/08 09:49:17;;;;;;;16.23;3.70;;;4.80;99.90;;;;;;5112493;27;20043;-70
2021/12/08 09:51:44;;;;;;;20.90;3.50;;;4.80;99.90;;;;;;5109474;27;20031;-72
2021/12/08 09:54:11;;;;;;;21.83;3.78;;;4.90;99.90;;;;;;5097349;28;20044;-70
2021/12/08 09:56:37;;;;;;;14.57;4.32;;;4.90;99.90;;;;;;5109834;27;20070;-70
2021/12/08 09:59:09;;;;;;;21.00;4.78;;;4.90;99.90;;;;;;5111675;27;20104;-70
2021/12/08 10:01:38;;;;;;;14.88;4.22;;;5.00;99.90;;;;;;5106819;27;20040;-69
2021/12/08 10:04:04;;;;;;;18.00;4.72;;;5.00;99.90;;;;;;5093980;27;20071;-71
2021/12/08 10:06:30;;;;;;;17.77;3.90;;;5.00;99.90;;;;;;5110234;28;20563;-70
2021/12/08 10:08:58;;;;;;;17.73;3.92;;;5.00;99.90;;;;;;5107418;27;20096;-70
2021/12/08 10:11:26;;;;;;;14.82;4.53;;;5.00;99.90;;;;;;5108577;28;20047;-70
2021/12/08 10:13:52;;;;;;;21.65;4.20;;;5.00;99.90;;;;;;5109882;28;20069;-71
2021/12/08 10:16:18;;;;;;;19.50;4.45;;;5.10;99.90;;;;;;5109535;28;20053;-71
2021/12/08 10:18:44;;;;;;;19.83;4.22;;;5.10;99.90;;;;;;5112132;27;20035;-71
2021/12/08 10:21:13;;;;;;;19.73;4.93;;;5.10;99.90;;;;;;5113013;27;20038;-71
2021/12/08 10:23:42;;;;;;;13.55;4.10;;;5.10;99.90;;;;;;5106612;27;20100;-71
2021/12/08 10:26:11;;;;;;;20.88;4.88;;;5.10;99.90;;;;;;5092525;28;20348;-70
2021/12/08 10:28:40;;;;;;;16.50;4.47;;;5.20;99.90;;;;;;5106496;28;20036;-72
2021/12/08 10:31:15;;;;;;;13.93;4.10;;;5.30;99.90;;;;;;5104015;27;20027;-69
2021/12/08 10:36:45;;;;;;;18.90;4.80;;;5.30;99.90;;;;;;5113026;27;20289;-71
2021/12/08 10:39:15;;;;;;;15.32;4.03;;;5.30;99.90;;;;;;5112943;28;20043;-70
2021/12/08 10:42:06;;;;;;;16.67;4.47;;;5.30;99.90;;;;;;5113190;27;20035;-70
2021/12/08 10:44:51;;;;;;;11.70;3.88;;;5.40;99.90;;;;;;5111691;28;20168;-72
2021/12/08 10:47:21;;;;;;;21.45;4.38;;;5.50;99.90;;;;;;5112832;28;20489;-71
2021/12/08 10:55:06;;;;;;;19.35;4.38;;;5.50;99.90;;;;;;5113060;28;20053;-71
2021/12/08 10:57:34;;;;;;;13.48;3.70;;;5.50;99.90;;;;;;5096341;28;20039;-70
2021/12/08 11:00:24;;;;;;;17.35;3.53;;;5.60;99.90;;;;;;5112513;28;20043;-72
2021/12/08 11:03:02;;;;;;;15.75;3.55;;;5.60;99.90;;;;;;5112699;28;20035;-71
2021/12/08 11:05:36;;;;;;;10.75;3.30;;;5.60;99.90;;;;;;5112766;28;20031;-71
2021/12/08 11:08:09;;;;;;;22.35;4.30;;;5.60;99.90;;;;;;5098627;28;20402;-72
2021/12/08 11:10:54;;;;;;;14.38;3.42;;;5.60;99.90;;;;;;5105037;28;20040;-71
2021/12/08 11:13:36;;;;;;;12.18;3.53;;;5.70;99.90;;;;;;5102741;28;20035;-71
2021/12/08 11:16:15;;;;;;;15.20;3.38;;;5.70;99.90;;;;;;5096367;28;20054;-71
2021/12/08 11:18:46;;;;;;;13.88;3.60;;;5.80;99.90;;;;;;5102074;28;20035;-70
2021/12/08 11:21:32;;;;;;;14.35;3.60;;;5.90;99.90;;;;;;5100335;28;20051;-70
2021/12/08 11:23:59;;;;;;;13.20;4.03;;;5.90;99.90;;;;;;5100934;27;20035;-71
2021/12/08 11:26:27;;;;;;;14.57;3.67;;;5.90;99.90;;;;;;5100361;28;20446;-71
2021/12/08 11:29:00;;;;;;;16.95;3.83;;;6.00;99.90;;;;;;5095643;28;20117;-70
2021/12/08 11:32:04;;;;;;;12.05;3.97;;;6.00;99.90;;;;;;5110947;28;20084;-70
2021/12/08 11:34:35;;;;;;;13.98;3.97;;;6.00;99.90;;;;;;5111399;28;20400;-71
2021/12/08 11:37:04;;;;;;;14.48;3.70;;;6.10;99.90;;;;;;5109248;28;20028;-72
2021/12/08 11:39:41;;;;;;;20.35;4.88;;;6.00;99.90;;;;;;5110871;28;20046;-70
2021/12/08 11:42:19;;;;;;;18.08;4.68;;;6.00;99.90;;;;;;5111157;28;20050;-69
2021/12/08 11:44:50;;;;;;;19.17;5.00;;;6.00;99.90;;;;;;5112007;28;20375;-71
2021/12/08 11:47:23;;;;;;;13.20;4.70;;;6.00;99.90;;;;;;5115044;27;20027;-71
2021/12/08 11:49:56;;;;;;;23.50;5.22;;;6.00;99.90;;;;;;5116512;27;20390;-72
2021/12/08 11:52:29;;;;;;;19.25;5.28;;;6.00;99.90;;;;;;5098782;27;20050;-71
2021/12/08 11:55:03;;;;;;;;;;;6.00;99.90;;;;;;5096878;28;20144;-70
2021/12/08 11:57:36;;;;;;;16.50;5.28;;;6.00;99.90;;;;;;5096208;28;20634;-73
2021/12/08 12:00:16;;;;;;;15.23;5.38;;;6.00;99.90;;;;;;5095270;28;20043;-71
2021/12/08 12:02:55;;;;;;;19.08;5.80;;;6.00;99.90;;;;;;5113348;28;20411;-72
2021/12/08 12:05:27;;;;;;;21.20;5.93;;;6.00;99.90;;;;;;5112658;27;20036;-73
2021/12/08 12:07:54;;;;;;;21.50;6.32;;;6.00;99.90;;;;;;5099372;27;20065;-71
2021/12/08 12:10:22;;;;;;;23.90;6.60;;;5.90;99.90;;;;;;5116266;27;20209;-72
2021/12/08 12:12:47;;;;;;;24.05;7.28;;;6.00;99.90;;;;;;5099319;28;20070;-71
2021/12/08 12:15:17;;;;;;;18.48;6.82;;;6.00;99.90;;;;;;5096275;28;20043;-71
2021/12/08 12:17:44;;;;;;;21.50;6.95;;;6.00;99.90;;;;;;5106502;27;20039;-71
2021/12/08 12:20:30;;;;;;;17.92;6.22;;;5.90;99.90;;;;;;5115386;27;20043;-70
2021/12/08 12:22:59;;;;;;;15.95;6.25;;;5.90;99.90;;;;;;5114063;27;20047;-70
2021/12/08 12:25:46;;;;;;;20.77;7.20;;;5.90;99.90;;;;;;5114986;27;20536;-70
2021/12/08 12:28:42;;;;;;;18.90;6.50;;;5.90;99.90;;;;;;5125394;27;20043;-72
2021/12/08 12:31:21;;;;;;;25.05;7.00;;;5.90;99.90;;;;;;5096265;27;20031;-72
2021/12/08 12:33:49;;;;;;;18.80;6.38;;;5.90;99.90;;;;;;5112763;27;20108;-71
2021/12/08 12:36:23;;;;;;;26.90;7.15;;;5.90;99.90;;;;;;5114138;27;20035;-71
2021/12/08 12:38:49;;;;;;;21.15;6.47;;;5.90;99.90;;;;;;5113809;27;20042;-71
2021/12/08 12:41:30;;;;;;;19.85;6.72;;;6.00;99.90;;;;;;5115150;27;20502;-70
2021/12/08 12:44:12;;;;;;;20.55;6.40;;;6.10;99.90;;;;;;5113645;27;20047;-71
2021/12/08 12:46:38;;;;;;;17.27;6.00;;;6.10;99.90;;;;;;5104886;27;20039;-71
2021/12/08 12:49:23;;;;;;;16.55;6.50;;;6.10;99.90;;;;;;5114947;27;20438;-71
2021/12/08 12:51:59;;;;;;;20.48;6.78;;;6.20;99.90;;;;;;5116602;27;20058;-71
2021/12/08 12:54:26;;;;;;;17.08;6.05;;;6.20;99.90;;;;;;5077812;28;20040;-72
2021/12/08 12:56:53;;;;;;;14.30;6.00;;;6.20;99.90;;;;;;5099448;27;20593;-71
2021/12/08 12:59:21;;;;;;;19.85;6.32;;;6.20;99.90;;;;;;5096493;27;20039;-72
2021/12/08 13:02:07;;;;;;;21.95;6.30;;;6.20;99.90;;;;;;5114792;27;20038;-72
2021/12/08 13:04:35;;;;;;;20.38;5.95;;;6.20;99.90;;;;;;5114780;27;20051;-71
2021/12/08 13:07:06;;;;;;;17.70;5.72;;;6.10;99.90;;;;;;5110606;27;20041;-71
2021/12/08 13:09:47;;;;;;;13.15;4.75;;;6.10;99.90;;;;;;5087665;27;20031;-71
2021/12/08 13:12:26;;;;;;;14.95;5.47;;;6.10;99.90;;;;;;5114937;27;20042;-71
2021/12/08 13:15:20;;;;;;;18.08;5.25;;;6.00;99.90;;;;;;5114138;27;20035;-71
2021/12/08 13:17:59;;;;;;;17.13;5.10;;;6.00;99.90;;;;;;5096753;27;20031;-72
2021/12/08 13:20:27;;;;;;;14.48;5.00;;;6.00;99.90;;;;;;5108261;28;20031;-71
2021/12/08 13:22:56;;;;;;;17.17;5.20;;;6.00;99.90;;;;;;5093766;28;20087;-72
2021/12/08 13:25:26;;;;;;;15.70;4.82;;;6.00;99.90;;;;;;5111955;28;20579;-70
2021/12/08 13:28:06;;;;;;;16.60;5.60;;;6.10;99.90;;;;;;5103944;27;20060;-70
2021/12/08 13:30:32;;;;;;;15.75;5.25;;;6.10;99.90;;;;;;5113704;27;20035;-71
2021/12/08 13:33:08;;;;;;;19.00;5.57;;;6.10;99.90;;;;;;5114656;27;20065;-71
2021/12/08 13:35:37;;;;;;;13.18;4.80;;;6.10;99.90;;;;;;5114217;27;20043;-70
2021/12/08 13:38:04;;;;;;;22.30;5.43;;;6.10;99.90;;;;;;5112800;27;20039;-70
2021/12/08 13:40:48;;;;;;;15.98;6.00;;;6.10;99.90;;;;;;5096146;27;20043;-70
2021/12/08 13:43:38;;;;;;;15.02;5.72;;;6.00;99.90;;;;;;5093458;28;20416;-71
2021/12/08 13:46:06;;;;;;;16.75;5.50;;;6.00;99.90;;;;;;5109975;28;20096;-70
2021/12/08 13:48:32;;;;;;;23.75;6.22;;;6.00;99.90;;;;;;5110146;28;20127;-72